Gillam Airport
CYGX : now visible

Airfield :











YOU CAN JOIN US ON...

 
LOGIN :

Register | Disclaimer

   EN    FR    IT 

 









Legend :    VFR   Marginal VFR   IFR   Intensive IFR   Very Intensive IFR
Visi :
Ceiling :
>= 8 km
>= 3000ft
5 to 8 km
1000 to 3000 ft
1500m to 5 km
500 to 1000 ft
800 to 1500m
200 to 500 ft
< 800m
< 200 ft
Symbols :   Thunderstorms  Fog  Heavy snow  Heavy precipitations  Wind > 20 kt







- Airport Elevation : 476 ft
- IATA code : YGX


CYGX - Gillam

CURRENT METAR :
  • 162100Z VRB06KT 15SM FEW018 BKN240 25/12 A2990 RMK CU1CI6 SLP132 DENSITY ALT 1800FT

EXPIRED METARs :
  • 162000Z 36003KT 15SM FEW015 SCT110 BKN220 BKN250 24/14 A2991 RMK CU2AC1CI3CC1 CC TR SLP134 DENSITY ALT 1700FT
  • 161900Z 35005KT 270V040 15SM FEW015 SCT100 BKN210 BKN240 22/15 A2992 RMK CU1AC4CI2CC1 CU TR CC TR SLP136 DENSITY ALT 1400FT

TAF TAF CYGX
Valid from the 16 at 19:00 until the 17 at 07:00 UTC


161838Z 1619/1707 VRB03KT P6SM BKN240
BECMG 1702/1704 13006KT RMK NXT FCST BY 170100Z
No reported NOTAMs for that airfield.



MET'MAP, your aeronautical weather chart ! - Copyright ORBIFLY December 2007 - Disclaimer

ORBIFLY MET'MAP TEAM :

Programming & Development : Alexandra Zaïnal
Concept & Development : Baudouin d'Aumeries
Co-Development & Prog : Marc-Olivier Méhu
Technical & hardware support : Manuel Goepfert

Contact : metmap@orbifly.com




SOURCES & CREDITS :

   NOAA       Earth
Advisory